Time;durP1;ratioP1;P1;durP2;ratioP2;P2;SDS_P1;SDS_P2;PMS_P1;PMS_P2;Temp;Humidity;BMP_temperature;BMP_pressure;BME280_temperature;BME280_humidity;BME280_pressure;Samples;Min_cycle;Max_cycle;Signal;HPM_P1;HPM_P2
2021/10/12 00:00:44;;;;;;;;;;;;;;;;;;4978182;28;19914;-81
2021/10/12 00:03:09;;;;;;;;;;;;;;;;;;4961867;28;19972;-81
2021/10/12 00:05:35;;;;;;;;;;;;;;;;;;4978562;28;19917;-81
2021/10/12 00:08:00;;;;;;;;;;;;;;;;;;4962543;28;20414;-81
2021/10/12 00:10:26;;;;;;;;;;;;;;;;;;4978646;28;19913;-81
2021/10/12 00:12:51;;;;;;;;;;;;;;;;;;4962620;28;19940;-81
2021/10/12 00:15:17;;;;;;;;;;;;;;;;;;4961502;28;20446;-81
2021/10/12 00:17:42;;;;;;;;;;;;;;;;;;4994465;28;20020;-81
2021/10/12 00:20:08;;;;;;;;;;;;;;;;;;4977425;28;19964;-81
2021/10/12 00:22:34;;;;;;;;;;;;;;;;;;4994766;28;20269;-81
2021/10/12 00:24:59;;;;;;;;;;;;;;;;;;4978608;28;20004;-81
2021/10/12 00:27:25;;;;;;;;;;;;;;;;;;4962277;28;19997;-81
2021/10/12 00:29:50;;;;;;;;;;;;;;;;;;4961631;28;19986;-80
2021/10/12 00:32:15;;;;;;;;;;;;;;;;;;4961616;28;19917;-81
2021/10/12 00:34:41;;;;;;;;;;;;;;;;;;4962060;28;19913;-81
2021/10/12 00:37:06;;;;;;;;;;;;;;;;;;4962556;28;20356;-81
2021/10/12 00:39:31;;;;;;;;;;;;;;;;;;4999242;28;19917;-81
2021/10/12 00:41:57;;;;;;;;;;;;;;;;;;4981956;28;19913;-81
2021/10/12 00:44:22;;;;;;;;;;;;;;;;;;4981528;28;19917;-80
2021/10/12 00:46:48;;;;;;;;;;;;;;;;;;4973592;28;20369;-81
2021/10/12 00:49:13;;;;;;;;;;;;;;;;;;4989746;28;19914;-81
2021/10/12 00:51:38;;;;;;;;;;;;;;;;;;4978901;28;19918;-81
2021/10/12 00:54:04;;;;;;;;;;;;;;;;;;4980280;28;19914;-81
2021/10/12 00:56:30;;;;;;;;;;;;;;;;;;4965269;28;19918;-81
2021/10/12 00:58:55;;;;;;;;;;;;;;;;;;4965087;28;19921;-81
2021/10/12 01:01:20;;;;;;;;;;;;;;;;;;4998077;28;19920;-81
2021/10/12 01:03:46;;;;;;;;;;;;;;;;;;4965831;28;20371;-81
2021/10/12 01:06:11;;;;;;;;;;;;;;;;;;4962967;28;19952;-81
2021/10/12 01:08:36;;;;;;;;;;;;;;;;;;4964964;28;19965;-81
2021/10/12 01:11:02;;;;;;;;;;;;;;;;;;4965288;28;20368;-81
2021/10/12 01:13:27;;;;;;;;;;;;;;;;;;4981467;28;20339;-81
2021/10/12 01:15:53;;;;;;;;;;;;;;;;;;4981281;28;19972;-81
2021/10/12 01:18:18;;;;;;;;;;;;;;;;;;4965464;28;19917;-81
2021/10/12 01:20:44;;;;;;;;;;;;;;;;;;4996708;28;20376;-81
2021/10/12 01:23:09;;;;;;;;;;;;;;;;;;4981208;28;20338;-81
2021/10/12 01:25:35;;;;;;;;;;;;;;;;;;4981199;28;19913;-81
2021/10/12 01:28:00;;;;;;;;;;;;;;;;;;4980218;28;19949;-81
2021/10/12 01:30:26;;;;;;;;;;;;;;;;;;4981184;28;19917;-81
2021/10/12 01:32:51;;;;;;;;;;;;;;;;;;4981554;28;19914;-81
2021/10/12 01:35:16;;;;;;;;;;;;;;;;;;4965103;28;19913;-81
2021/10/12 01:37:42;;;;;;;;;;;;;;;;;;4981095;28;19965;-81
2021/10/12 01:40:08;;;;;;;;;;;;;;;;;;4965901;28;19926;-81
2021/10/12 01:42:33;;;;;;;;;;;;;;;;;;4977200;28;19922;-83
2021/10/12 01:44:59;;;;;;;;;;;;;;;;;;4980826;28;19913;-83
2021/10/12 01:47:24;;;;;;;;;;;;;;;;;;4997117;28;20375;-82
2021/10/12 01:49:50;;;;;;;;;;;;;;;;;;4980550;28;20283;-82
2021/10/12 01:52:15;;;;;;;;;;;;;;;;;;4979928;28;20396;-83
2021/10/12 01:54:41;;;;;;;;;;;;;;;;;;4997095;28;20000;-82
2021/10/12 01:57:06;;;;;;;;;;;;;;;;;;4980314;28;19920;-82
2021/10/12 01:59:31;;;;;;;;;;;;;;;;;;4980566;28;19960;-82
2021/10/12 02:02:01;;;;;;;;;;;;;;;;;;4996021;28;20291;-82
2021/10/12 02:04:26;;;;;;;;;;;;;;;;;;4965174;28;19913;-82
2021/10/12 02:06:52;;;;;;;;;;;;;;;;;;4964062;28;19925;-82
2021/10/12 02:09:19;;;;;;;;;;;;;;;;;;4980356;28;19926;-82
2021/10/12 02:11:44;;;;;;;;;;;;;;;;;;4980197;28;19955;-82
2021/10/12 02:14:09;;;;;;;;;;;;;;;;;;4964650;28;19957;-82
2021/10/12 02:16:36;;;;;;;;;;;;;;;;;;4980120;28;19924;-81
2021/10/12 02:19:01;;;;;;;;;;;;;;;;;;4963773;28;19917;-83
2021/10/12 02:21:26;;;;;;;;;;;;;;;;;;4980185;28;20386;-82
2021/10/12 02:23:52;;;;;;;;;;;;;;;;;;4964030;28;19917;-82
2021/10/12 02:26:17;;;;;;;;;;;;;;;;;;4963679;28;20714;-83
2021/10/12 02:28:43;;;;;;;;;;;;;;;;;;4995641;28;19921;-82
2021/10/12 02:31:08;;;;;;;;;;;;;;;;;;4963941;28;19978;-82
2021/10/12 02:33:33;;;;;;;;;;;;;;;;;;4980274;28;19913;-82
2021/10/12 02:35:59;;;;;;;;;;;;;;;;;;4974647;28;19948;-82
2021/10/12 02:38:24;;;;;;;;;;;;;;;;;;4966409;28;19917;-82
2021/10/12 02:40:51;;;;;;;;;;;;;;;;;;4978897;28;20605;-82
2021/10/12 02:43:17;;;;;;;;;;;;;;;;;;4995564;28;19922;-82
2021/10/12 02:45:42;;;;;;;;;;;;;;;;;;4979599;28;20442;-82
2021/10/12 02:48:08;;;;;;;;;;;;;;;;;;4979956;28;19921;-82
2021/10/12 02:50:33;;;;;;;;;;;;;;;;;;4962850;28;19921;-82
2021/10/12 02:52:59;;;;;;;;;;;;;;;;;;4979509;28;19937;-82
2021/10/12 02:55:24;;;;;;;;;;;;;;;;;;4978944;28;19917;-82
2021/10/12 02:57:51;;;;;;;;;;;;;;;;;;4963316;28;19921;-82
2021/10/12 03:00:16;;;;;;;;;;;;;;;;;;4979172;28;19972;-81
2021/10/12 03:02:41;;;;;;;;;;;;;;;;;;4978363;28;20571;-81
2021/10/12 03:05:07;;;;;;;;;;;;;;;;;;4979116;28;19925;-81
2021/10/12 03:07:32;;;;;;;;;;;;;;;;;;4978887;28;20422;-81
2021/10/12 03:09:57;;;;;;;;;;;;;;;;;;4979308;28;19964;-81
2021/10/12 03:12:23;;;;;;;;;;;;;;;;;;4979288;28;19924;-82
2021/10/12 03:14:48;;;;;;;;;;;;;;;;;;4979504;28;19941;-82
2021/10/12 03:17:13;;;;;;;;;;;;;;;;;;4963417;28;19913;-81
2021/10/12 03:19:39;;;;;;;;;;;;;;;;;;4979004;28;19917;-81
2021/10/12 03:22:12;;;;;;;;;;;;;;;;;;4995165;28;19925;-81
2021/10/12 03:24:37;;;;;;;;;;;;;;;;;;4963211;28;20399;-81
2021/10/12 03:27:03;;;;;;;;;;;;;;;;;;4977734;28;19932;-82
2021/10/12 03:29:28;;;;;;;;;;;;;;;;;;4983147;28;19929;-82
2021/10/12 03:31:53;;;;;;;;;;;;;;;;;;4976924;28;20403;-82
2021/10/12 03:34:18;;;;;;;;;;;;;;;;;;4962387;28;20348;-82
2021/10/12 03:36:44;;;;;;;;;;;;;;;;;;4994622;28;19917;-82
2021/10/12 03:39:10;;;;;;;;;;;;;;;;;;4971750;28;19983;-81
2021/10/12 03:41:35;;;;;;;;;;;;;;;;;;4996109;28;20330;-82
2021/10/12 03:44:00;;;;;;;;;;;;;;;;;;4995253;28;19914;-82
2021/10/12 03:46:26;;;;;;;;;;;;;;;;;;4974901;28;20004;-82
2021/10/12 03:48:51;;;;;;;;;;;;;;;;;;4991342;28;19948;-81
2021/10/12 03:51:16;;;;;;;;;;;;;;;;;;5010516;28;19961;-82
2021/10/12 03:53:41;;;;;;;;;;;;;;;;;;4977879;28;19922;-82
2021/10/12 03:56:07;;;;;;;;;;;;;;;;;;4995164;28;19968;-82
2021/10/12 03:58:32;;;;;;;;;;;;;;;;;;4961595;28;19913;-82
2021/10/12 04:00:57;;;;;;;;;;;;;;;;;;4978656;28;19956;-82
2021/10/12 04:03:23;;;;;;;;;;;;;;;;;;4962652;28;19917;-81
2021/10/12 04:05:48;;;;;;;;;;;;;;;;;;4958261;28;19922;-81
2021/10/12 04:08:14;;;;;;;;;;;;;;;;;;4991032;28;19913;-82
2021/10/12 04:10:39;;;;;;;;;;;;;;;;;;4993152;28;20299;-81
2021/10/12 04:13:05;;;;;;;;;;;;;;;;;;4961954;28;19917;-82
2021/10/12 04:15:31;;;;;;;;;;;;;;;;;;4997197;28;19924;-82
2021/10/12 04:17:56;;;;;;;;;;;;;;;;;;4982067;28;20371;-81
2021/10/12 04:20:24;;;;;;;;;;;;;;;;;;4981960;28;19917;-82
2021/10/12 04:22:50;;;;;;;;;;;;;;;;;;4982589;28;19921;-81
2021/10/12 04:25:15;;;;;;;;;;;;;;;;;;4982228;28;20013;-81
2021/10/12 04:27:41;;;;;;;;;;;;;;;;;;4982204;28;19913;-82
2021/10/12 04:30:06;;;;;;;;;;;;;;;;;;4980792;28;19917;-81
2021/10/12 04:32:32;;;;;;;;;;;;;;;;;;4981658;28;19916;-82
2021/10/12 04:34:57;;;;;;;;;;;;;;;;;;4982181;28;20406;-83
2021/10/12 04:37:22;;;;;;;;;;;;;;;;;;4981873;28;19913;-81
2021/10/12 04:39:48;;;;;;;;;;;;;;;;;;4996310;28;20000;-82
2021/10/12 04:42:13;;;;;;;;;;;;;;;;;;4987603;28;20016;-81
2021/10/12 04:44:38;;;;;;;;;;;;;;;;;;4997653;28;19997;-81
2021/10/12 04:47:04;;;;;;;;;;;;;;;;;;4981790;28;19914;-81
2021/10/12 04:49:29;;;;;;;;;;;;;;;;;;4966088;28;19969;-81
2021/10/12 04:51:54;;;;;;;;;;;;;;;;;;4964699;28;19917;-81
2021/10/12 04:54:20;;;;;;;;;;;;;;;;;;4965717;28;19922;-81
2021/10/12 04:56:45;;;;;;;;;;;;;;;;;;4979423;28;19967;-81
2021/10/12 04:59:10;;;;;;;;;;;;;;;;;;4981170;28;19917;-81
2021/10/12 05:01:36;;;;;;;;;;;;;;;;;;4982075;28;19918;-81
2021/10/12 05:04:01;;;;;;;;;;;;;;;;;;4981946;28;19920;-81
2021/10/12 05:06:26;;;;;;;;;;;;;;;;;;4990918;28;20055;-81
2021/10/12 05:08:54;;;;;;;;;;;;;;;;;;4997682;28;20012;-81
2021/10/12 05:11:19;;;;;;;;;;;;;;;;;;4965515;28;20003;-81
2021/10/12 05:13:45;;;;;;;;;;;;;;;;;;4977919;28;19966;-81
2021/10/12 05:16:13;;;;;;;;;;;;;;;;;;4962017;28;19917;-81
2021/10/12 05:18:40;;;;;;;;;;;;;;;;;;4962219;28;19925;-82
2021/10/12 05:21:05;;;;;;;;;;;;;;;;;;4964719;28;19972;-82
2021/10/12 05:23:31;;;;;;;;;;;;;;;;;;4997072;28;19921;-82
2021/10/12 05:25:57;;;;;;;;;;;;;;;;;;4995535;28;19918;-82
2021/10/12 05:28:22;;;;;;;;;;;;;;;;;;4997778;28;20426;-81
2021/10/12 05:30:47;;;;;;;;;;;;;;;;;;5010426;28;19917;-81
2021/10/12 05:33:13;;;;;;;;;;;;;;;;;;4979165;28;19921;-82
2021/10/12 05:35:39;;;;;;;;;;;;;;;;;;4978468;28;19921;-81
2021/10/12 05:38:04;;;;;;;;;;;;;;;;;;5011710;28;19981;-81
2021/10/12 05:40:29;;;;;;;;;;;;;;;;;;4993080;28;20372;-81
2021/10/12 05:42:55;;;;;;;;;;;;;;;;;;4980506;28;20008;-80
2021/10/12 05:45:20;;;;;;;;;;;;;;;;;;4961346;28;19924;-80
2021/10/12 05:47:46;;;;;;;;;;;;;;;;;;4980742;28;19909;-80
2021/10/12 05:50:11;;;;;;;;;;;;;;;;;;4980050;28;19917;-80
2021/10/12 05:52:38;;;;;;;;;;;;;;;;;;4996942;28;20330;-81
2021/10/12 05:55:06;;;;;;;;;;;;;;;;;;5012325;28;19929;-81
2021/10/12 05:57:42;;;;;;;;;;;;;;;;;;4996455;28;19932;-80
2021/10/12 06:00:08;;;;;;;;;;;;;;;;;;5011590;28;19925;-80
2021/10/12 06:02:33;;;;;;;;;;;;;;;;;;4980652;28;19917;-81
2021/10/12 06:04:58;;;;;;;;;;;;;;;;;;5010392;28;20396;-80
2021/10/12 06:07:24;;;;;;;;;;;;;;;;;;4987204;28;20451;-81
2021/10/12 06:09:49;;;;;;;;;;;;;;;;;;4994317;28;19924;-81
2021/10/12 06:12:14;;;;;;;;;;;;;;;;;;4980419;28;19917;-81
2021/10/12 06:14:40;;;;;;;;;;;;;;;;;;4980103;28;19921;-82
2021/10/12 06:17:05;;;;;;;;;;;;;;;;;;4980285;28;19917;-81
2021/10/12 06:19:30;;;;;;;;;;;;;;;;;;4980437;28;19913;-81
2021/10/12 06:21:56;;;;;;;;;;;;;;;;;;4996158;28;19925;-81
2021/10/12 06:24:21;;;;;;;;;;;;;;;;;;4964083;28;19968;-81
2021/10/12 06:26:46;;;;;;;;;;;;;;;;;;4962787;28;19960;-83
2021/10/12 06:29:12;;;;;;;;;;;;;;;;;;4961998;28;20382;-84
2021/10/12 06:31:37;;;;;;;;;;;;;;;;;;4961515;28;19968;-83
2021/10/12 06:34:02;;;;;;;;;;;;;;;;;;4963861;28;20360;-83
2021/10/12 06:36:27;;;;;;;;;;;;;;;;;;4960763;28;20005;-83
2021/10/12 06:38:53;;;;;;;;;;;;;;;;;;4962022;28;20339;-82
2021/10/12 06:41:18;;;;;;;;;;;;;;;;;;4976534;28;19976;-83
2021/10/12 06:43:45;;;;;;;;;;;;;;;;;;4978978;28;20447;-83
2021/10/12 06:46:10;;;;;;;;;;;;;;;;;;4995612;28;19917;-83
2021/10/12 06:48:36;;;;;;;;;;;;;;;;;;4992807;28;19918;-83
2021/10/12 06:51:01;;;;;;;;;;;;;;;;;;4995669;28;19924;-82
2021/10/12 06:53:27;;;;;;;;;;;;;;;;;;4963033;28;19921;-83
2021/10/12 06:55:53;;;;;;;;;;;;;;;;;;4979470;28;19971;-83
2021/10/12 06:58:18;;;;;;;;;;;;;;;;;;4979122;28;20025;-83
2021/10/12 07:00:44;;;;;;;;;;;;;;;;;;4969559;28;20328;-83
2021/10/12 07:03:09;;;;;;;;;;;;;;;;;;4963641;28;19924;-84
2021/10/12 07:05:34;;;;;;;;;;;;;;;;;;4978093;28;19924;-82
2021/10/12 07:08:00;;;;;;;;;;;;;;;;;;4979290;28;19928;-82
2021/10/12 07:10:25;;;;;;;;;;;;;;;;;;4978813;28;19964;-83
2021/10/12 07:12:52;;;;;;;;;;;;;;;;;;4963440;28;19913;-84
2021/10/12 07:15:17;;;;;;;;;;;;;;;;;;4978410;28;20030;-83
2021/10/12 07:17:43;;;;;;;;;;;;;;;;;;4978399;28;20403;-82
2021/10/12 07:20:08;;;;;;;;;;;;;;;;;;4978424;28;19929;-82
2021/10/12 07:22:34;;;;;;;;;;;;;;;;;;4979404;28;19922;-84
2021/10/12 07:25:02;;;;;;;;;;;;;;;;;;4994628;28;20607;-84
2021/10/12 07:27:28;;;;;;;;;;;;;;;;;;4962789;28;19917;-84
2021/10/12 07:29:53;;;;;;;;;;;;;;;;;;4978107;28;19944;-81
2021/10/12 07:32:20;;;;;;;;;;;;;;;;;;4979265;28;19926;-80
2021/10/12 07:34:45;;;;;;;;;;;;;;;;;;4978730;28;19920;-80
2021/10/12 07:37:10;;;;;;;;;;;;;;;;;;4995339;28;19913;-81
2021/10/12 07:39:36;;;;;;;;;;;;;;;;;;4993750;28;19917;-79
2021/10/12 07:42:05;;;;;;;;;;;;;;;;;;4978389;28;19924;-80
2021/10/12 07:44:30;;;;;;;;;;;;;;;;;;5003109;28;19963;-81
2021/10/12 07:46:55;;;;;;;;;;;;;;;;;;4961697;28;19921;-81
2021/10/12 07:49:21;;;;;;;;;;;;;;;;;;4974536;28;20391;-82
2021/10/12 07:51:47;;;;;;;;;;;;;;;;;;4969516;28;19925;-81
2021/10/12 07:54:17;;;;;;;;;;;;;;;;;;4999199;28;19917;-81
2021/10/12 07:56:42;;;;;;;;;;;;;;;;;;4961444;28;20014;-82
2021/10/12 07:59:08;;;;;;;;;;;;;;;;;;4978505;28;20003;-82
2021/10/12 08:01:34;;;;;;;;;;;;;;;;;;4962352;28;19917;-81
2021/10/12 08:04:00;;;;;;;;;;;;;;;;;;4977521;28;20011;-82
2021/10/12 08:06:25;;;;;;;;;;;;;;;;;;5002301;28;19918;-82
2021/10/12 08:08:50;;;;;;;;;;;;;;;;;;4974373;28;19925;-83
2021/10/12 08:11:17;;;;;;;;;;;;;;;;;;4991444;28;19914;-82
2021/10/12 08:13:42;;;;;;;;;;;;;;;;;;4991372;28;19914;-82
2021/10/12 08:16:09;;;;;;;;;;;;;;;;;;4991304;28;19987;-82
2021/10/12 08:18:35;;;;;;;;;;;;;;;;;;4993632;28;19918;-82
2021/10/12 08:21:01;;;;;;;;;;;;;;;;;;4977835;28;19922;-82
2021/10/12 08:23:26;;;;;;;;;;;;;;;;;;4978040;28;19921;-82
2021/10/12 08:25:51;;;;;;;;;;;;;;;;;;5010914;28;20004;-82
2021/10/12 08:28:17;;;;;;;;;;;;;;;;;;4971249;28;20364;-81
2021/10/12 08:30:43;;;;;;;;;;;;;;;;;;4998362;28;19979;-82
2021/10/12 08:33:08;;;;;;;;;;;;;;;;;;4988246;28;19928;-82
2021/10/12 08:35:34;;;;;;;;;;;;;;;;;;4972778;28;19948;-82
2021/10/12 08:37:59;;;;;;;;;;;;;;;;;;5012544;28;19940;-82
2021/10/12 08:40:24;;;;;;;;;;;;;;;;;;4991932;28;19956;-82
2021/10/12 08:42:51;;;;;;;;;;;;;;;;;;4977985;28;19968;-81
2021/10/12 08:45:17;;;;;;;;;;;;;;;;;;4993764;28;19925;-83
2021/10/12 08:47:42;;;;;;;;;;;;;;;;;;4979280;28;19913;-83
2021/10/12 08:50:08;;;;;;;;;;;;;;;;;;4977254;28;19925;-83
2021/10/12 08:52:34;;;;;;;;;;;;;;;;;;4978213;28;20012;-83
2021/10/12 08:54:59;;;;;;;;;;;;;;;;;;4962293;28;20426;-85
2021/10/12 08:57:45;;;;;;;;;;;;;;;;;;4975495;28;20008;-84
2021/10/12 09:00:11;;;;;;;;;;;;;;;;;;4993888;28;20014;-84
2021/10/12 09:03:15;;;;;;;;;;;;;;;;;;4963536;28;20442;-83
2021/10/12 09:05:52;;;;;;;;;;;;;;;;;;5031028;28;20282;-83
2021/10/12 09:08:21;;;;;;;;;;;;;;;;;;4981497;28;19921;-83
2021/10/12 09:10:47;;;;;;;;;;;;;;;;;;5030470;28;19918;-83
2021/10/12 09:13:12;;;;;;;;;;;;;;;;;;4981049;28;19913;-83
2021/10/12 09:15:38;;;;;;;;;;;;;;;;;;4997673;28;19913;-84
2021/10/12 09:18:03;;;;;;;;;;;;;;;;;;4965379;28;20007;-84
2021/10/12 09:20:29;;;;;;;;;;;;;;;;;;4965418;28;19921;-82
2021/10/12 09:23:10;;;;;;;;;;;;;;;;;;4981451;28;20379;-82
2021/10/12 09:25:43;;;;;;;;;;;;;;;;;;4997128;28;20287;-83
2021/10/12 09:28:24;;;;;;;;;;;;;;;;;;4997639;28;20037;-81
2021/10/12 09:30:49;;;;;;;;;;;;;;;;;;4981806;28;19918;-80
2021/10/12 09:33:15;;;;;;;;;;;;;;;;;;4997572;28;20275;-81
2021/10/12 09:35:40;;;;;;;;;;;;;;;;;;4981629;28;19921;-81
2021/10/12 09:38:10;;;;;;;;;;;;;;;;;;4981028;28;19940;-81
2021/10/12 09:40:36;;;;;;;;;;;;;;;;;;4964492;28;19917;-80
2021/10/12 09:43:01;;;;;;;;;;;;;;;;;;4977463;28;19917;-81
2021/10/12 09:45:37;;;;;;;;;;;;;;;;;;4969334;28;19918;-80
2021/10/12 09:48:02;;;;;;;;;;;;;;;;;;4993709;28;19949;-80
2021/10/12 09:50:32;;;;;;;;;;;;;;;;;;4996728;28;20010;-81
2021/10/12 09:52:57;;;;;;;;;;;;;;;;;;4980209;28;19918;-81
2021/10/12 09:55:22;;;;;;;;;;;;;;;;;;4956028;28;20272;-81
2021/10/12 09:57:48;;;;;;;;;;;;;;;;;;4972872;28;19914;-82
2021/10/12 10:00:13;;;;;;;;;;;;;;;;;;5007955;28;20444;-81
2021/10/12 10:02:38;;;;;;;;;;;;;;;;;;4996676;28;19928;-81
2021/10/12 10:05:05;;;;;;;;;;;;;;;;;;4980130;28;19952;-81
2021/10/12 10:07:31;;;;;;;;;;;;;;;;;;4980788;28;19921;-81
2021/10/12 10:10:06;;;;;;;;;;;;;;;;;;4983517;28;19918;-81
2021/10/12 10:12:31;;;;;;;;;;;;;;;;;;4955037;28;20024;-81
2021/10/12 10:14:57;;;;;;;;;;;;;;;;;;4977480;28;20388;-81
2021/10/12 10:17:22;;;;;;;;;;;;;;;;;;4979946;28;19939;-81
2021/10/12 10:19:48;;;;;;;;;;;;;;;;;;5010034;28;19921;-81
2021/10/12 10:22:32;;;;;;;;;;;;;;;;;;4996336;28;20024;-81
2021/10/12 10:24:59;;;;;;;;;;;;;;;;;;5012916;28;19924;-81
2021/10/12 10:27:38;;;;;;;;;;;;;;;;;;5012542;28;19920;-80
2021/10/12 10:30:25;;;;;;;;;;;;;;;;;;4995872;28;20348;-81
2021/10/12 10:32:53;;;;;;;;;;;;;;;;;;5009715;28;19967;-80
2021/10/12 10:35:32;;;;;;;;;;;;;;;;;;4973564;28;19922;-81
2021/10/12 10:38:17;;;;;;;;;;;;;;;;;;4977307;28;19918;-80
2021/10/12 10:40:43;;;;;;;;;;;;;;;;;;4990696;28;19918;-80
2021/10/12 10:43:08;;;;;;;;;;;;;;;;;;4994808;28;19924;-81
2021/10/12 10:45:43;;;;;;;;;;;;;;;;;;4980034;28;19917;-80
2021/10/12 10:48:09;;;;;;;;;;;;;;;;;;4996119;28;19980;-81
2021/10/12 10:50:35;;;;;;;;;;;;;;;;;;4979703;28;20276;-81
2021/10/12 10:53:01;;;;;;;;;;;;;;;;;;4978835;28;19944;-81
2021/10/12 10:55:27;;;;;;;;;;;;;;;;;;4978634;28;19917;-81
2021/10/12 10:58:05;;;;;;;;;;;;;;;;;;4962674;28;19920;-81
2021/10/12 11:00:43;;;;;;;;;;;;;;;;;;4979365;28;19921;-81
2021/10/12 11:03:32;;;;;;;;;;;;;;;;;;4979698;28;19922;-81
2021/10/12 11:05:57;;;;;;;;;;;;;;;;;;4995689;28;19957;-81
2021/10/12 11:08:24;;;;;;;;;;;;;;;;;;4993013;28;19948;-87
2021/10/12 11:10:56;;;;;;;;;;;;;;;;;;4976777;28;19914;-86
2021/10/12 11:13:28;;;;;;;;;;;;;;;;;;4983565;28;19913;-84
2021/10/12 11:15:54;;;;;;;;;;;;;;;;;;4963159;28;19917;-83
2021/10/12 11:18:19;;;;;;;;;;;;;;;;;;4978951;28;19972;-85
2021/10/12 11:20:45;;;;;;;;;;;;;;;;;;4962235;28;19972;-83
2021/10/12 11:23:13;;;;;;;;;;;;;;;;;;4969800;28;20430;-83
2021/10/12 11:25:39;;;;;;;;;;;;;;;;;;4965956;28;19914;-83
2021/10/12 11:28:08;;;;;;;;;;;;;;;;;;5010243;28;19921;-83
2021/10/12 11:30:34;;;;;;;;;;;;;;;;;;4990772;28;19978;-82
2021/10/12 11:33:01;;;;;;;;;;;;;;;;;;4993908;28;19921;-82
2021/10/12 11:35:33;;;;;;;;;;;;;;;;;;4994668;28;19925;-83
2021/10/12 11:37:59;;;;;;;;;;;;;;;;;;4992291;28;19921;-82
2021/10/12 11:40:24;;;;;;;;;;;;;;;;;;4992999;28;19925;-83
2021/10/12 11:42:51;;;;;;;;;;;;;;;;;;4987229;28;20475;-83
2021/10/12 11:45:17;;;;;;;;;;;;;;;;;;4979815;28;20372;-84
2021/10/12 11:47:43;;;;;;;;;;;;;;;;;;4962366;28;19913;-84
2021/10/12 11:50:09;;;;;;;;;;;;;;;;;;4978650;28;19925;-84
2021/10/12 11:52:35;;;;;;;;;;;;;;;;;;4962452;28;19930;-83
2021/10/12 11:55:10;;;;;;;;;;;;;;;;;;4962674;28;19913;-83
2021/10/12 11:57:36;;;;;;;;;;;;;;;;;;4994742;28;19913;-83
2021/10/12 12:00:01;;;;;;;;;;;;;;;;;;4962220;28;20364;-84
2021/10/12 12:02:30;;;;;;;;;;;;;;;;;;4979044;28;19913;-84
2021/10/12 12:04:59;;;;;;;;;;;;;;;;;;4962139;28;20388;-83
2021/10/12 12:07:25;;;;;;;;;;;;;;;;;;4962221;28;20298;-84
2021/10/12 12:09:51;;;;;;;;;;;;;;;;;;4962715;28;19921;-83
2021/10/12 12:12:17;;;;;;;;;;;;;;;;;;4977648;28;19940;-83
2021/10/12 12:14:43;;;;;;;;;;;;;;;;;;4962144;28;19913;-84
2021/10/12 12:17:19;;;;;;;;;;;;;;;;;;4994223;28;19921;-83
2021/10/12 12:19:48;;;;;;;;;;;;;;;;;;4994941;28;19924;-84
2021/10/12 12:22:16;;;;;;;;;;;;;;;;;;4975220;28;19944;-83
2021/10/12 12:25:00;;;;;;;;;;;;;;;;;;5002024;28;19964;-84
2021/10/12 12:27:26;;;;;;;;;;;;;;;;;;5010152;28;20012;-84
2021/10/12 12:30:08;;;;;;;;;;;;;;;;;;4991137;28;20011;-85
2021/10/12 12:32:33;;;;;;;;;;;;;;;;;;4997863;28;19919;-84
2021/10/12 12:34:59;;;;;;;;;;;;;;;;;;4973487;28;20308;-85
2021/10/12 12:37:26;;;;;;;;;;;;;;;;;;4982221;28;19936;-85
2021/10/12 12:39:51;;;;;;;;;;;;;;;;;;4965640;28;20004;-85
2021/10/12 12:42:29;;;;;;;;;;;;;;;;;;4985338;28;20008;-84
2021/10/12 12:45:27;;;;;;;;;;;;;;;;;;4967005;28;19917;-84
2021/10/12 12:47:57;;;;;;;;;;;;;;;;;;4949839;28;19913;-86
2021/10/12 12:50:26;;;;;;;;;;;;;;;;;;4981044;28;19917;-86
2021/10/12 12:52:51;;;;;;;;;;;;;;;;;;4997942;28;20446;-86
2021/10/12 12:55:30;;;;;;;;;;;;;;;;;;4966143;28;20015;-85
2021/10/12 12:57:57;;;;;;;;;;;;;;;;;;4965454;28;20011;-85
2021/10/12 13:00:24;;;;;;;;;;;;;;;;;;4966532;28;20367;-85
2021/10/12 13:02:54;;;;;;;;;;;;;;;;;;4994894;28;19925;-84
2021/10/12 13:05:19;;;;;;;;;;;;;;;;;;4998190;28;19940;-85
2021/10/12 13:07:45;;;;;;;;;;;;;;;;;;4981891;28;20379;-86
2021/10/12 13:10:10;;;;;;;;;;;;;;;;;;4978348;28;19918;-85
2021/10/12 13:12:36;;;;;;;;;;;;;;;;;;4962228;28;19918;-85
2021/10/12 13:15:02;;;;;;;;;;;;;;;;;;4965767;28;19921;-84
2021/10/12 13:17:27;;;;;;;;;;;;;;;;;;4965118;28;19913;-85
2021/10/12 13:19:53;;;;;;;;;;;;;;;;;;4964492;28;19930;-85
2021/10/12 13:22:21;;;;;;;;;;;;;;;;;;4980825;28;19933;-85
2021/10/12 13:24:46;;;;;;;;;;;;;;;;;;4993770;28;19918;-83
2021/10/12 13:27:11;;;;;;;;;;;;;;;;;;4980095;28;20387;-83
2021/10/12 13:29:37;;;;;;;;;;;;;;;;;;4980670;28;19921;-83
2021/10/12 13:32:02;;;;;;;;;;;;;;;;;;4965981;28;19920;-88
2021/10/12 13:34:28;;;;;;;;;;;;;;;;;;4964896;28;19910;-86
2021/10/12 13:36:55;;;;;;;;;;;;;;;;;;4981580;28;19991;-86
2021/10/12 13:39:20;;;;;;;;;;;;;;;;;;4964125;28;19925;-87
2021/10/12 13:41:46;;;;;;;;;;;;;;;;;;4981020;28;20046;-85
2021/10/12 13:44:12;;;;;;;;;;;;;;;;;;4998364;28;20011;-85
2021/10/12 13:46:37;;;;;;;;;;;;;;;;;;4963533;28;20440;-83
2021/10/12 13:49:03;;;;;;;;;;;;;;;;;;4964527;28;20053;-83
2021/10/12 13:51:28;;;;;;;;;;;;;;;;;;4959410;28;20284;-83
2021/10/12 13:53:53;;;;;;;;;;;;;;;;;;4977417;28;19921;-83
2021/10/12 13:56:19;;;;;;;;;;;;;;;;;;4968414;28;19973;-84
2021/10/12 13:58:44;;;;;;;;;;;;;;;;;;4979843;28;20008;-82
2021/10/12 14:01:09;;;;;;;;;;;;;;;;;;4964355;28;19921;-84
2021/10/12 14:03:36;;;;;;;;;;;;;;;;;;4972253;28;19917;-83
2021/10/12 14:06:01;;;;;;;;;;;;;;;;;;4967411;28;20318;-83
2021/10/12 14:08:26;;;;;;;;;;;;;;;;;;4996802;28;19917;-83
2021/10/12 14:10:52;;;;;;;;;;;;;;;;;;4964163;28;19914;-81
2021/10/12 14:13:17;;;;;;;;;;;;;;;;;;4972266;28;19918;-81
2021/10/12 14:15:42;;;;;;;;;;;;;;;;;;4980954;28;19925;-81
2021/10/12 14:18:08;;;;;;;;;;;;;;;;;;4996282;28;20015;-81
2021/10/12 14:20:33;;;;;;;;;;;;;;;;;;4995929;28;19999;-80
2021/10/12 14:22:58;;;;;;;;;;;;;;;;;;4995175;28;19925;-80
2021/10/12 14:25:24;;;;;;;;;;;;;;;;;;4995009;28;19984;-80
2021/10/12 14:27:50;;;;;;;;;;;;;;;;;;4979195;28;19925;-80
2021/10/12 14:30:15;;;;;;;;;;;;;;;;;;4996023;28;19913;-80
2021/10/12 14:32:40;;;;;;;;;;;;;;;;;;4996428;28;19913;-80
2021/10/12 14:35:06;;;;;;;;;;;;;;;;;;4966860;28;19925;-80
2021/10/12 14:37:34;;;;;;;;;;;;;;;;;;4976847;28;20389;-81
2021/10/12 14:40:07;;;;;;;;;;;;;;;;;;5011338;28;19921;-80
2021/10/12 14:42:32;;;;;;;;;;;;;;;;;;4990863;28;19930;-80
2021/10/12 14:44:57;;;;;;;;;;;;;;;;;;4993303;28;20403;-80
2021/10/12 14:47:23;;;;;;;;;;;;;;;;;;4996121;28;19918;-80
2021/10/12 14:49:48;;;;;;;;;;;;;;;;;;4995634;28;19947;-80
2021/10/12 14:52:14;;;;;;;;;;;;;;;;;;4976053;28;19933;-80
2021/10/12 14:54:39;;;;;;;;;;;;;;;;;;4966101;28;20015;-80
2021/10/12 14:57:05;;;;;;;;;;;;;;;;;;4959333;28;20406;-81
2021/10/12 14:59:30;;;;;;;;;;;;;;;;;;4978036;28;20008;-81
2021/10/12 15:01:57;;;;;;;;;;;;;;;;;;4964404;28;19918;-79
2021/10/12 15:04:23;;;;;;;;;;;;;;;;;;4980002;28;20273;-79
2021/10/12 15:06:51;;;;;;;;;;;;;;;;;;4995955;28;19945;-80
2021/10/12 15:09:17;;;;;;;;;;;;;;;;;;4991074;28;19918;-80
2021/10/12 15:11:42;;;;;;;;;;;;;;;;;;4963328;28;19923;-80
2021/10/12 15:14:07;;;;;;;;;;;;;;;;;;4995531;28;19926;-80
2021/10/12 15:16:33;;;;;;;;;;;;;;;;;;4995402;28;19913;-80
2021/10/12 15:18:59;;;;;;;;;;;;;;;;;;4962971;28;19924;-81
2021/10/12 15:21:25;;;;;;;;;;;;;;;;;;4995619;28;19921;-80
2021/10/12 15:23:50;;;;;;;;;;;;;;;;;;4981880;28;19968;-80
2021/10/12 15:26:15;;;;;;;;;;;;;;;;;;5014984;28;19913;-80
2021/10/12 15:28:41;;;;;;;;;;;;;;;;;;5014864;28;20386;-80
2021/10/12 15:31:06;;;;;;;;;;;;;;;;;;4997867;28;19924;-81
2021/10/12 15:33:31;;;;;;;;;;;;;;;;;;4979220;28;19917;-80
2021/10/12 15:35:57;;;;;;;;;;;;;;;;;;4962299;28;20431;-80
2021/10/12 15:38:22;;;;;;;;;;;;;;;;;;4978973;28;19913;-80
2021/10/12 15:40:48;;;;;;;;;;;;;;;;;;4977744;28;19917;-81
2021/10/12 15:43:13;;;;;;;;;;;;;;;;;;4961142;28;19924;-81
2021/10/12 15:45:38;;;;;;;;;;;;;;;;;;4978330;28;19953;-83
2021/10/12 15:48:04;;;;;;;;;;;;;;;;;;4962727;28;20020;-82
2021/10/12 15:50:29;;;;;;;;;;;;;;;;;;4962434;28;19921;-82
2021/10/12 15:52:54;;;;;;;;;;;;;;;;;;4978896;28;19918;-81
2021/10/12 15:55:20;;;;;;;;;;;;;;;;;;4978687;28;20276;-82
2021/10/12 15:57:45;;;;;;;;;;;;;;;;;;4978665;28;19913;-81
2021/10/12 16:00:11;;;;;;;;;;;;;;;;;;4962187;28;19972;-81
2021/10/12 16:02:36;;;;;;;;;;;;;;;;;;4994661;28;20007;-81
2021/10/12 16:05:02;;;;;;;;;;;;;;;;;;4994672;28;19952;-81
2021/10/12 16:07:28;;;;;;;;;;;;;;;;;;4978879;28;19913;-82
2021/10/12 16:09:53;;;;;;;;;;;;;;;;;;4962093;28;19913;-81
2021/10/12 16:12:18;;;;;;;;;;;;;;;;;;4962194;28;19925;-81
2021/10/12 16:22:58;;;;;;;;;;;;;;;;;;4992275;28;19922;-81
2021/10/12 16:25:24;;;;;;;;;;;;;;;;;;4982837;28;19973;-82
2021/10/12 16:27:49;;;;;;;;;;;;;;;;;;4961990;28;19928;-82
2021/10/12 16:30:14;;;;;;;;;;;;;;;;;;4978457;28;19920;-83
2021/10/12 16:32:40;;;;;;;;;;;;;;;;;;4972908;28;20012;-82
2021/10/12 16:35:05;;;;;;;;;;;;;;;;;;4958605;28;19960;-82
2021/10/12 16:37:32;;;;;;;;;;;;;;;;;;4974979;28;19980;-81
2021/10/12 16:39:57;;;;;;;;;;;;;;;;;;4994108;28;20332;-82
2021/10/12 16:42:24;;;;;;;;;;;;;;;;;;4962594;28;19968;-82
2021/10/12 16:44:49;;;;;;;;;;;;;;;;;;5013205;28;19928;-82
2021/10/12 16:47:14;;;;;;;;;;;;;;;;;;4989836;28;20352;-81
2021/10/12 16:49:41;;;;;;;;;;;;;;;;;;4977883;28;19917;-82